Time;durP1;ratioP1;P1;durP2;ratioP2;P2;SDS_P1;SDS_P2;PMS_P1;PMS_P2;Temp;Humidity;BMP_temperature;BMP_pressure;BME280_temperature;BME280_humidity;BME280_pressure;Samples;Min_cycle;Max_cycle;Signal;HPM_P1;HPM_P2
2023/07/04 00:00:43;;;;;;;0.10;0.10;;;12.60;99.90;;;;;;4932501;28;20403;-91
2023/07/04 00:03:09;;;;;;;0.00;0.00;;;13.60;99.90;;;;;;4932187;28;20044;-91
2023/07/04 00:05:34;;;;;;;0.30;0.30;;;12.50;99.90;;;;;;4945024;28;20051;-91
2023/07/04 00:08:00;;;;;;;0.10;0.10;;;12.50;99.90;;;;;;4951030;28;20089;-91
2023/07/04 00:10:26;;;;;;;0.10;0.10;;;12.50;99.90;;;;;;4949080;28;20047;-90
2023/07/04 00:12:52;;;;;;;0.10;0.10;;;12.50;99.90;;;;;;4953872;28;20050;-91
2023/07/04 00:15:17;;;;;;;0.17;0.17;;;12.40;99.90;;;;;;4919071;28;20531;-91
2023/07/04 00:17:43;;;;;;;0.10;0.10;;;12.40;99.90;;;;;;4914565;28;20046;-91
2023/07/04 00:20:10;;;;;;;0.10;0.10;;;12.30;99.90;;;;;;4920580;29;20084;-91
2023/07/04 00:22:37;;;;;;;0.00;0.00;;;12.30;99.90;;;;;;4905893;29;20070;-91
2023/07/04 00:25:05;;;;;;;0.10;0.10;;;12.30;99.90;;;;;;4905106;29;20090;-91
2023/07/04 00:27:32;;;;;;;0.08;0.08;;;12.20;99.90;;;;;;4937256;29;20062;-91
2023/07/04 00:29:58;;;;;;;0.00;0.00;;;12.20;99.90;;;;;;4921391;29;20063;-91
2023/07/04 00:32:24;;;;;;;0.10;0.10;;;12.10;99.90;;;;;;4909155;29;20059;-91
2023/07/04 00:34:50;;;;;;;0.15;0.15;;;12.10;99.90;;;;;;4956392;29;20059;-87
2023/07/04 00:37:19;;;;;;;0.30;0.10;;;12.10;99.90;;;;;;4924829;29;20047;-90
2023/07/04 00:39:44;;;;;;;0.20;0.17;;;12.10;99.90;;;;;;4926200;29;20055;-89
2023/07/04 00:42:10;;;;;;;0.07;0.00;;;12.10;99.90;;;;;;4940587;29;20596;-90
2023/07/04 00:44:37;;;;;;;0.10;0.10;;;12.00;99.90;;;;;;4940935;29;20047;-90
2023/07/04 00:47:21;;;;;;;0.10;0.10;;;12.00;99.90;;;;;;4939032;29;20135;-91
2023/07/04 00:49:57;;;;;;;0.10;0.10;;;12.00;99.90;;;;;;4948168;29;20090;-90
2023/07/04 00:52:27;;;;;;;0.30;0.30;;;11.90;99.90;;;;;;4946723;28;20047;-89
2023/07/04 00:55:01;;;;;;;0.13;0.10;;;12.00;99.90;;;;;;4930775;28;20061;-88
2023/07/04 00:57:32;;;;;;;0.13;0.13;;;11.90;99.90;;;;;;4931897;29;20047;-91
2023/07/04 01:00:09;;;;;;;0.47;0.17;;;11.90;99.90;;;;;;4943464;28;20053;-89
2023/07/04 01:02:35;;;;;;;0.10;0.10;;;11.80;99.90;;;;;;4932293;28;20059;-90
2023/07/04 01:05:05;;;;;;;0.00;0.00;;;11.80;99.90;;;;;;4932781;28;20463;-90
2023/07/04 01:07:59;;;;;;;0.10;0.10;;;11.80;99.90;;;;;;4934486;28;20038;-91
2023/07/04 01:10:28;;;;;;;0.00;0.00;;;11.80;99.90;;;;;;4963674;28;20042;-91
2023/07/04 01:12:53;;;;;;;0.10;0.10;;;11.80;99.90;;;;;;4945523;28;20039;-89
2023/07/04 01:15:19;;;;;;;0.00;0.00;;;11.80;99.90;;;;;;4942570;29;20042;-91
2023/07/04 01:17:45;;;;;;;0.10;0.10;;;11.80;99.90;;;;;;4939325;29;20480;-91
2023/07/04 01:20:16;;;;;;;0.20;0.20;;;11.80;99.90;;;;;;4939081;29;20107;-91
2023/07/04 01:22:53;;;;;;;0.10;0.10;;;11.80;99.90;;;;;;4945620;28;20082;-91
2023/07/04 01:26:09;;;;;;;0.10;0.10;;;11.80;99.90;;;;;;4961495;28;20051;-91
2023/07/04 01:28:35;;;;;;;0.40;0.20;;;11.80;99.90;;;;;;4896278;29;20060;-91
2023/07/04 01:31:01;;;;;;;0.30;0.30;;;11.80;99.90;;;;;;4939033;29;20047;-91
2023/07/04 01:33:27;;;;;;;0.20;0.20;;;11.80;99.90;;;;;;4939687;29;20062;-91
2023/07/04 01:35:53;;;;;;;0.37;0.20;;;11.80;99.90;;;;;;4952199;28;20047;-91
2023/07/04 01:38:20;;;;;;;0.07;0.03;;;11.70;99.90;;;;;;4919624;29;20052;-91
2023/07/04 01:40:46;;;;;;;0.40;0.40;;;11.70;99.90;;;;;;4919995;29;20130;-91
2023/07/04 01:43:11;;;;;;;0.10;0.10;;;11.80;99.90;;;;;;4921407;29;20090;-92
2023/07/04 01:45:37;;;;;;;0.30;0.30;;;11.80;99.90;;;;;;4909329;29;20101;-91
2023/07/04 01:48:03;;;;;;;1.20;1.00;;;11.80;99.90;;;;;;4936896;29;20055;-92
2023/07/04 01:50:28;;;;;;;0.97;0.40;;;11.80;99.90;;;;;;4930291;29;20070;-91
2023/07/04 01:52:54;;;;;;;0.40;0.40;;;11.90;99.90;;;;;;4907585;29;20111;-91
2023/07/04 01:55:20;;;;;;;0.93;0.70;;;11.90;99.90;;;;;;4923532;28;20091;-92
2023/07/04 01:57:47;;;;;;;0.88;0.30;;;11.90;99.90;;;;;;4943864;28;20047;-91
2023/07/04 02:00:13;;;;;;;0.22;0.22;;;11.90;99.90;;;;;;4928116;28;20062;-90
2023/07/04 02:02:40;;;;;;;0.43;0.35;;;11.90;99.90;;;;;;4948037;28;20047;-92
2023/07/04 02:05:06;;;;;;;0.28;0.25;;;11.90;99.90;;;;;;4931144;28;20127;-92
2023/07/04 02:07:32;;;;;;;0.25;0.25;;;11.90;99.90;;;;;;4935494;28;20245;-91
2023/07/04 02:09:58;;;;;;;1.13;0.47;;;12.00;99.90;;;;;;4929034;29;20043;-92
2023/07/04 02:12:24;;;;;;;0.63;0.40;;;12.00;99.90;;;;;;4935238;28;20097;-91
2023/07/04 02:14:49;;;;;;;0.80;0.80;;;12.00;99.90;;;;;;4947843;28;20390;-90
2023/07/04 02:17:15;;;;;;;0.40;0.30;;;12.10;99.90;;;;;;4962649;28;20051;-91
2023/07/04 02:19:41;;;;;;;0.20;0.20;;;12.10;99.90;;;;;;4947942;28;20043;-92
2023/07/04 02:22:06;;;;;;;0.53;0.40;;;12.10;99.90;;;;;;4946539;28;20121;-91
2023/07/04 02:24:32;;;;;;;0.50;0.50;;;12.20;99.90;;;;;;4932763;28;20046;-91
2023/07/04 02:26:58;;;;;;;0.25;0.20;;;12.10;99.90;;;;;;4929321;28;20126;-90
2023/07/04 02:29:24;;;;;;;1.27;0.50;;;12.20;99.90;;;;;;4946540;28;20046;-90
2023/07/04 02:31:50;;;;;;;0.50;0.37;;;12.10;99.90;;;;;;4961886;28;20297;-91
2023/07/04 02:34:15;;;;;;;0.50;0.40;;;12.20;99.90;;;;;;4925231;28;20391;-92
2023/07/04 02:36:41;;;;;;;0.30;0.30;;;12.10;99.90;;;;;;4948161;28;20126;-91
2023/07/04 02:39:07;;;;;;;0.43;0.30;;;12.10;99.90;;;;;;4942908;28;20035;-90
2023/07/04 02:41:32;;;;;;;0.20;0.20;;;12.10;99.90;;;;;;4931632;28;20606;-90
2023/07/04 02:44:00;;;;;;;2.00;0.30;;;12.20;99.90;;;;;;4931494;28;20034;-91
2023/07/04 02:46:26;;;;;;;0.25;0.25;;;12.10;99.90;;;;;;4912414;28;20487;-91
2023/07/04 02:48:51;;;;;;;0.53;0.30;;;12.10;99.90;;;;;;4949879;28;20087;-91
2023/07/04 02:51:17;;;;;;;0.10;0.10;;;12.10;99.90;;;;;;4933177;28;20050;-90
2023/07/04 02:53:43;;;;;;;0.40;0.40;;;12.20;99.90;;;;;;4927839;28;20058;-90
2023/07/04 02:56:11;;;;;;;0.43;0.40;;;12.20;99.90;;;;;;4944959;28;20095;-88
2023/07/04 02:58:36;;;;;;;0.85;0.40;;;12.20;99.90;;;;;;4914098;28;20118;-91
2023/07/04 03:01:04;;;;;;;0.63;0.63;;;12.20;99.90;;;;;;4930392;28;20150;-91
2023/07/04 03:03:30;;;;;;;0.32;0.32;;;12.20;99.90;;;;;;4926322;28;20048;-91
2023/07/04 03:05:56;;;;;;;0.55;0.52;;;12.30;99.90;;;;;;4944147;28;20388;-91
2023/07/04 03:08:22;;;;;;;3.63;0.83;;;12.30;99.90;;;;;;4943851;29;20042;-90
2023/07/04 03:10:48;;;;;;;0.32;0.32;;;12.30;99.90;;;;;;4914188;28;20048;-91
2023/07/04 03:13:14;;;;;;;0.30;0.30;;;12.30;99.90;;;;;;4913167;28;20847;-89
2023/07/04 03:15:41;;;;;;;0.28;0.28;;;12.30;99.90;;;;;;4913293;28;20503;-91
2023/07/04 03:18:07;;;;;;;;;;;12.30;99.90;;;;;;4945612;28;20043;-91
2023/07/04 03:20:33;;;;;;;0.32;0.30;;;12.30;99.90;;;;;;4948424;28;19926;-92
2023/07/04 03:22:59;;;;;;;0.25;0.25;;;12.30;99.90;;;;;;4957971;28;20126;-90
2023/07/04 03:25:24;;;;;;;0.37;0.37;;;12.30;99.90;;;;;;4946177;28;20129;-91
2023/07/04 03:27:50;;;;;;;0.13;0.13;;;12.20;99.90;;;;;;4931136;29;20059;-91
2023/07/04 03:30:16;;;;;;;0.27;0.20;;;12.30;99.90;;;;;;4938159;28;20551;-90
2023/07/04 03:32:42;;;;;;;0.38;0.38;;;12.20;99.90;;;;;;4942084;28;20130;-89
2023/07/04 03:35:08;;;;;;;0.32;0.30;;;12.20;99.90;;;;;;4949152;28;20043;-91
2023/07/04 03:37:35;;;;;;;0.73;0.30;;;12.20;99.90;;;;;;4935664;28;20126;-91
2023/07/04 03:40:06;;;;;;;1.05;0.95;;;12.30;99.90;;;;;;4949777;28;20042;-91
2023/07/04 03:42:33;;;;;;;0.20;0.20;;;12.30;99.90;;;;;;4933831;28;20503;-91
2023/07/04 03:44:59;;;;;;;0.25;0.25;;;12.30;99.90;;;;;;4918714;28;20042;-91
2023/07/04 03:47:24;;;;;;;0.57;0.30;;;12.30;99.90;;;;;;4965478;28;20061;-90
2023/07/04 03:49:50;;;;;;;0.43;0.43;;;12.30;99.90;;;;;;4933582;28;20052;-90
2023/07/04 03:52:16;;;;;;;0.40;0.40;;;12.30;99.90;;;;;;4932750;28;20402;-91
2023/07/04 03:54:41;;;;;;;0.33;0.27;;;12.30;99.90;;;;;;4951544;29;20044;-91
2023/07/04 03:57:08;;;;;;;0.30;0.30;;;12.30;99.90;;;;;;4938987;29;20055;-90
2023/07/04 03:59:34;;;;;;;0.55;0.55;;;12.30;99.90;;;;;;4924310;29;20695;-91
2023/07/04 04:01:59;;;;;;;0.47;0.40;;;12.30;99.90;;;;;;4922257;29;20138;-90
2023/07/04 04:04:25;;;;;;;0.13;0.13;;;12.30;99.90;;;;;;4921563;29;20074;-90
2023/07/04 04:06:55;;;;;;;0.30;0.30;;;12.30;99.90;;;;;;4922118;29;20047;-91
2023/07/04 04:09:21;;;;;;;0.20;0.20;;;12.20;99.90;;;;;;4905497;28;20052;-91
2023/07/04 04:11:47;;;;;;;0.52;0.43;;;12.20;99.90;;;;;;4925148;29;20055;-91
2023/07/04 04:14:12;;;;;;;0.40;0.40;;;12.20;99.90;;;;;;4941024;29;20179;-92
2023/07/04 04:16:38;;;;;;;0.93;0.57;;;12.20;99.90;;;;;;4924607;29;20133;-91
2023/07/04 04:19:04;;;;;;;0.40;0.40;;;12.20;99.90;;;;;;4940853;29;20046;-91
2023/07/04 04:21:29;;;;;;;0.63;0.30;;;12.20;99.90;;;;;;4924809;28;20106;-92
2023/07/04 04:23:55;;;;;;;0.30;0.30;;;12.20;99.90;;;;;;4941960;28;20039;-92
2023/07/04 04:26:22;;;;;;;0.63;0.57;;;12.20;99.90;;;;;;4931521;28;20400;-91
2023/07/04 04:28:48;;;;;;;;;;;12.30;99.90;;;;;;4933807;28;20050;-92
2023/07/04 04:31:14;;;;;;;1.35;0.68;;;12.30;99.90;;;;;;4924080;28;19937;-90
2023/07/04 04:33:40;;;;;;;0.25;0.20;;;12.30;99.90;;;;;;4941018;28;20074;-91
2023/07/04 04:36:06;;;;;;;0.30;0.23;;;12.30;99.90;;;;;;4936294;28;20073;-91
2023/07/04 04:38:32;;;;;;;0.70;0.60;;;12.30;99.90;;;;;;4928058;28;20311;-91
2023/07/04 04:41:05;;;;;;;0.23;0.23;;;12.40;99.90;;;;;;4934226;28;20129;-91
2023/07/04 04:43:34;;;;;;;1.52;0.40;;;12.40;99.90;;;;;;4930152;28;20047;-91
2023/07/04 04:46:03;;;;;;;0.65;0.45;;;12.40;99.90;;;;;;4929790;28;20576;-91
2023/07/04 04:48:35;;;;;;;0.40;0.40;;;12.40;99.90;;;;;;4946730;28;20066;-91
2023/07/04 04:51:07;;;;;;;0.45;0.40;;;12.50;99.90;;;;;;4944862;28;20101;-90
2023/07/04 04:53:35;;;;;;;0.60;0.60;;;12.50;99.90;;;;;;4930782;28;20124;-91
2023/07/04 04:56:02;;;;;;;0.40;0.40;;;12.50;99.90;;;;;;4933190;28;20050;-91
2023/07/04 04:58:27;;;;;;;;;;;12.50;99.90;;;;;;4922655;28;20049;-92
2023/07/04 05:00:53;;;;;;;0.63;0.60;;;12.60;99.90;;;;;;4961355;28;20017;-91
2023/07/04 05:03:23;;;;;;;0.43;0.43;;;12.50;99.90;;;;;;4926284;29;20051;-91
2023/07/04 05:05:49;;;;;;;0.95;0.43;;;12.60;99.90;;;;;;4947692;28;20419;-91
2023/07/04 05:08:14;;;;;;;0.73;0.50;;;12.60;99.90;;;;;;4944090;28;20051;-90
2023/07/04 05:10:40;;;;;;;0.40;0.40;;;12.60;99.90;;;;;;4915474;28;20578;-91
2023/07/04 05:13:06;;;;;;;0.30;0.30;;;12.60;99.90;;;;;;4926635;29;20055;-92
2023/07/04 05:15:31;;;;;;;0.20;0.20;;;12.60;99.90;;;;;;4932786;29;20044;-93
2023/07/04 05:17:57;;;;;;;0.43;0.43;;;12.70;99.90;;;;;;4941530;28;20079;-89
2023/07/04 05:20:24;;;;;;;0.20;0.20;;;12.70;99.90;;;;;;4946239;28;20136;-88
2023/07/04 05:22:56;;;;;;;0.13;0.13;;;12.70;99.90;;;;;;4928434;28;20069;-92
2023/07/04 05:25:24;;;;;;;0.20;0.20;;;12.70;99.90;;;;;;4941514;29;20492;-92
2023/07/04 05:27:51;;;;;;;0.25;0.25;;;12.70;99.90;;;;;;4944659;29;20063;-92
2023/07/04 05:30:17;;;;;;;0.30;0.30;;;12.80;99.90;;;;;;4947151;29;20203;-92
2023/07/04 05:32:42;;;;;;;0.37;0.37;;;12.80;99.90;;;;;;4913737;29;20138;-92
2023/07/04 05:35:08;;;;;;;0.20;0.20;;;12.80;99.90;;;;;;4903482;29;20402;-92
2023/07/04 05:37:34;;;;;;;0.70;0.40;;;12.90;99.90;;;;;;4935793;29;20054;-92
2023/07/04 05:40:00;;;;;;;0.47;0.40;;;12.90;99.90;;;;;;4920133;29;20394;-91
2023/07/04 05:42:27;;;;;;;0.60;0.27;;;12.90;99.90;;;;;;4922412;29;20291;-90
2023/07/04 05:44:53;;;;;;;0.20;0.17;;;12.90;99.90;;;;;;4893252;29;20054;-93
2023/07/04 05:47:19;;;;;;;0.20;0.20;;;12.90;99.90;;;;;;4920632;29;20103;-93
2023/07/04 05:49:44;;;;;;;0.20;0.20;;;13.00;99.90;;;;;;4919698;29;20054;-93
2023/07/04 05:52:10;;;;;;;0.30;0.30;;;13.00;99.90;;;;;;4920485;29;20081;-94
2023/07/04 05:54:36;;;;;;;1.20;0.30;;;13.00;99.90;;;;;;4935430;29;20055;-92
2023/07/04 05:57:01;;;;;;;0.30;0.30;;;13.10;99.90;;;;;;4909650;29;20044;-94
2023/07/04 05:59:27;;;;;;;0.10;0.10;;;13.10;99.90;;;;;;4865610;29;20100;-87
2023/07/04 06:01:53;;;;;;;0.20;0.20;;;13.20;99.90;;;;;;4930216;29;20061;-93
2023/07/04 06:04:19;;;;;;;0.10;0.10;;;13.20;99.90;;;;;;4928558;29;20036;-94
2023/07/04 06:06:51;;;;;;;0.30;0.25;;;13.20;99.90;;;;;;4905868;29;20054;-91
2023/07/04 06:09:17;;;;;;;0.38;0.28;;;13.30;99.90;;;;;;4930394;29;20520;-91
2023/07/04 06:11:46;;;;;;;0.25;0.20;;;13.30;99.90;;;;;;4930141;29;20055;-93
2023/07/04 06:14:17;;;;;;;0.30;0.17;;;13.30;99.90;;;;;;4909333;29;20476;-91
2023/07/04 06:16:43;;;;;;;0.40;0.40;;;13.30;99.90;;;;;;4937052;29;20055;-89
2023/07/04 06:19:09;;;;;;;0.10;0.10;;;13.40;99.90;;;;;;4927145;29;20669;-89
2023/07/04 06:21:35;;;;;;;0.33;0.20;;;13.50;99.90;;;;;;4923985;29;20067;-89
2023/07/04 06:24:01;;;;;;;;;;;13.60;99.90;;;;;;4926993;29;20055;-90
2023/07/04 06:26:31;;;;;;;0.32;0.20;;;13.60;99.90;;;;;;4926718;29;20394;-91
2023/07/04 06:28:57;;;;;;;0.20;0.20;;;13.70;99.90;;;;;;4927104;29;20060;-89
2023/07/04 06:31:25;;;;;;;0.10;0.10;;;13.70;99.90;;;;;;4929907;29;20518;-87
2023/07/04 06:33:53;;;;;;;1.02;0.93;;;13.80;99.90;;;;;;4904101;29;20064;-87
2023/07/04 06:36:20;;;;;;;0.20;0.20;;;13.80;99.90;;;;;;4924017;29;20043;-88
2023/07/04 06:38:46;;;;;;;0.10;0.10;;;13.80;99.90;;;;;;4926205;29;20492;-87
2023/07/04 06:41:14;;;;;;;0.20;0.20;;;13.80;99.90;;;;;;4911212;29;20056;-87
2023/07/04 06:43:45;;;;;;;0.88;0.10;;;13.80;99.90;;;;;;4925959;29;20099;-88
2023/07/04 06:46:14;;;;;;;0.10;0.10;;;13.90;99.90;;;;;;4922041;29;20047;-88
2023/07/04 06:48:40;;;;;;;0.30;0.10;;;13.90;99.90;;;;;;4907076;29;20127;-90
2023/07/04 06:51:12;;;;;;;0.20;0.20;;;13.90;99.90;;;;;;4922851;29;20048;-88
2023/07/04 06:53:39;;;;;;;0.20;0.20;;;14.00;99.90;;;;;;4903777;29;20115;-85
2023/07/04 06:56:07;;;;;;;0.20;0.20;;;14.00;99.90;;;;;;4931601;29;20047;-85
2023/07/04 06:58:36;;;;;;;0.10;0.10;;;14.00;99.90;;;;;;4922634;29;20048;-85
2023/07/04 07:01:02;;;;;;;0.22;0.20;;;14.00;99.90;;;;;;4921907;29;20044;-86
2023/07/04 07:03:29;;;;;;;0.35;0.20;;;14.00;99.90;;;;;;4918716;29;20457;-86
2023/07/04 07:05:55;;;;;;;0.10;0.10;;;14.10;99.90;;;;;;4925939;29;20044;-87
2023/07/04 07:08:21;;;;;;;0.43;0.20;;;14.20;99.90;;;;;;4929030;29;20049;-84
2023/07/04 07:10:58;;;;;;;0.30;0.30;;;14.30;99.90;;;;;;4940345;28;20044;-85
2023/07/04 07:13:24;;;;;;;0.05;0.05;;;14.30;99.90;;;;;;4941208;29;20067;-90
2023/07/04 07:15:50;;;;;;;0.10;0.10;;;14.30;99.90;;;;;;4925059;29;20047;-91
2023/07/04 07:18:16;;;;;;;0.00;0.00;;;14.30;99.90;;;;;;4908360;29;20083;-92
2023/07/04 07:20:42;;;;;;;0.10;0.10;;;14.30;99.90;;;;;;4917282;29;20119;-93
2023/07/04 07:23:13;;;;;;;0.20;0.20;;;14.30;99.90;;;;;;4918650;29;20430;-92
2023/07/04 07:25:39;;;;;;;0.20;0.20;;;14.30;99.90;;;;;;4887222;29;20488;-92
2023/07/04 07:28:04;;;;;;;0.00;0.00;;;14.30;99.90;;;;;;4921024;29;20090;-92
2023/07/04 07:30:30;;;;;;;0.20;0.20;;;14.30;99.90;;;;;;4902078;29;20045;-92
2023/07/04 07:32:56;;;;;;;0.37;0.37;;;14.30;99.90;;;;;;4901354;28;20150;-91
2023/07/04 07:35:21;;;;;;;0.10;0.10;;;14.30;99.90;;;;;;4941055;28;20086;-92
2023/07/04 07:37:47;;;;;;;0.20;0.20;;;14.30;99.90;;;;;;4954173;28;20043;-91
2023/07/04 07:40:13;;;;;;;0.70;0.70;;;14.30;99.90;;;;;;4920723;29;20522;-90
2023/07/04 07:42:38;;;;;;;0.80;0.40;;;14.40;99.90;;;;;;4922159;29;20056;-94
2023/07/04 07:45:05;;;;;;;0.10;0.10;;;14.50;99.90;;;;;;4938352;29;20078;-94
2023/07/04 07:47:30;;;;;;;0.10;0.10;;;14.60;99.90;;;;;;4937612;29;20043;-93
2023/07/04 07:49:56;;;;;;;0.10;0.10;;;14.70;99.90;;;;;;4953143;29;20098;-92
2023/07/04 07:52:22;;;;;;;0.10;0.10;;;14.80;99.90;;;;;;4937528;29;20480;-91
2023/07/04 07:54:48;;;;;;;0.03;0.03;;;14.80;99.90;;;;;;4952171;29;20134;-90
2023/07/04 07:57:14;;;;;;;0.43;0.43;;;14.90;99.90;;;;;;4921687;29;20444;-91
2023/07/04 07:59:40;;;;;;;0.30;0.30;;;15.00;99.90;;;;;;4937204;29;20504;-90
2023/07/04 08:02:13;;;;;;;0.10;0.10;;;15.00;99.90;;;;;;4918893;29;20105;-88
2023/07/04 08:04:38;;;;;;;0.10;0.10;;;15.00;99.90;;;;;;4920534;29;20047;-89
2023/07/04 08:07:07;;;;;;;0.13;0.13;;;15.00;99.90;;;;;;4917502;29;20058;-91
2023/07/04 08:09:33;;;;;;;0.98;0.17;;;15.00;99.90;;;;;;4916602;29;20048;-89
2023/07/04 08:11:59;;;;;;;0.17;0.17;;;15.10;99.90;;;;;;4912135;28;20522;-86
2023/07/04 08:14:25;;;;;;;0.03;0.03;;;15.20;99.90;;;;;;4924950;29;20375;-85
2023/07/04 08:16:53;;;;;;;0.38;0.20;;;15.20;99.90;;;;;;4923088;28;20057;-85
2023/07/04 08:19:23;;;;;;;0.13;0.13;;;15.20;99.90;;;;;;4902170;29;20535;-85
2023/07/04 08:21:48;;;;;;;0.28;0.13;;;15.30;99.90;;;;;;4918447;29;20059;-85
2023/07/04 08:24:16;;;;;;;0.15;0.10;;;15.30;99.90;;;;;;4906171;29;20047;-85
2023/07/04 08:26:46;;;;;;;0.10;0.10;;;15.30;99.90;;;;;;4905957;29;20055;-85
2023/07/04 08:29:13;;;;;;;0.10;0.10;;;15.30;99.90;;;;;;4921789;29;20485;-84
2023/07/04 08:31:39;;;;;;;0.20;0.20;;;15.40;99.90;;;;;;4905326;28;20047;-84
2023/07/04 08:34:05;;;;;;;0.00;0.00;;;15.40;99.90;;;;;;4923782;29;20575;-84
2023/07/04 08:36:32;;;;;;;0.10;0.10;;;15.40;99.90;;;;;;4958938;28;20086;-87
2023/07/04 08:38:58;;;;;;;0.10;0.10;;;15.40;99.90;;;;;;4939848;29;20043;-85
2023/07/04 08:41:27;;;;;;;0.00;0.00;;;15.40;99.90;;;;;;4924920;29;20102;-84
2023/07/04 08:44:04;;;;;;;0.10;0.10;;;15.40;99.90;;;;;;4941646;29;20059;-85
2023/07/04 08:46:35;;;;;;;0.13;0.10;;;15.50;99.90;;;;;;4924492;29;20053;-87
2023/07/04 08:49:03;;;;;;;0.20;0.20;;;15.50;99.90;;;;;;4941915;28;20058;-85
2023/07/04 08:51:36;;;;;;;0.47;0.35;;;15.50;99.90;;;;;;4943419;28;20065;-84
2023/07/04 08:54:07;;;;;;;0.55;0.30;;;15.60;99.90;;;;;;4935793;28;20050;-85
2023/07/04 08:56:37;;;;;;;0.60;0.40;;;15.70;99.90;;;;;;4959404;28;20141;-86
2023/07/04 08:59:11;;;;;;;0.15;0.15;;;15.70;99.90;;;;;;4978291;28;20061;-88
2023/07/04 09:01:52;;;;;;;0.63;0.25;;;15.80;99.90;;;;;;4951453;29;20051;-88
2023/07/04 09:04:26;;;;;;;0.13;0.13;;;15.80;99.90;;;;;;4938055;28;20051;-88
2023/07/04 09:07:09;;;;;;;0.43;0.43;;;15.80;99.90;;;;;;4930660;29;20119;-86
2023/07/04 09:10:04;;;;;;;0.17;0.10;;;15.80;99.90;;;;;;4921969;29;20039;-88
2023/07/04 09:12:34;;;;;;;1.75;0.70;;;15.90;99.90;;;;;;4928194;29;20067;-86
2023/07/04 09:15:27;;;;;;;0.00;0.00;;;16.00;99.90;;;;;;4931993;28;20058;-84
2023/07/04 09:18:03;;;;;;;0.15;0.15;;;16.00;99.90;;;;;;4949146;28;20137;-84
2023/07/04 09:20:35;;;;;;;0.65;0.10;;;16.00;99.90;;;;;;4939553;29;20083;-84
2023/07/04 09:23:07;;;;;;;0.10;0.10;;;16.10;99.90;;;;;;4938243;29;20191;-84
2023/07/04 09:25:33;;;;;;;0.13;0.10;;;16.20;99.90;;;;;;4920898;29;20127;-85
2023/07/04 09:27:58;;;;;;;0.10;0.10;;;16.30;99.90;;;;;;4938988;29;20512;-84
2023/07/04 09:30:25;;;;;;;0.00;0.00;;;16.40;99.90;;;;;;4944492;29;20445;-82
2023/07/04 09:32:51;;;;;;;0.17;0.10;;;16.50;99.90;;;;;;4941544;28;20059;-87
2023/07/04 09:35:17;;;;;;;0.98;0.10;;;16.60;99.90;;;;;;4920758;29;20494;-83
2023/07/04 09:38:00;;;;;;;0.20;0.20;;;16.60;99.90;;;;;;4941733;28;20121;-83
2023/07/04 09:40:48;;;;;;;0.17;0.17;;;16.60;99.90;;;;;;4939593;29;20047;-87
2023/07/04 09:43:29;;;;;;;0.20;0.20;;;16.60;99.90;;;;;;4938061;28;20392;-86
2023/07/04 09:46:22;;;;;;;0.10;0.10;;;16.80;99.90;;;;;;4924115;28;20051;-85
2023/07/04 09:48:48;;;;;;;0.25;0.20;;;16.90;99.90;;;;;;4924444;29;20047;-87
2023/07/04 09:51:30;;;;;;;0.30;0.25;;;17.00;99.90;;;;;;4908388;29;20043;-86
2023/07/04 09:54:18;;;;;;;0.50;0.20;;;17.10;99.90;;;;;;4934413;29;20463;-84
2023/07/04 09:56:44;;;;;;;1.27;0.20;;;17.60;99.90;;;;;;4943265;29;20111;-84
2023/07/04 09:59:39;;;;;;;0.20;0.20;;;17.50;99.90;;;;;;4954504;29;20456;-84
2023/07/04 10:02:17;;;;;;;0.08;0.08;;;17.50;99.90;;;;;;4917403;29;20048;-83
2023/07/04 10:04:45;;;;;;;1.52;0.45;;;17.50;99.90;;;;;;4938992;29;20062;-82
2023/07/04 10:07:13;;;;;;;0.10;0.10;;;17.60;99.90;;;;;;4922939;29;20078;-85
2023/07/04 10:10:06;;;;;;;0.82;0.40;;;17.80;99.90;;;;;;4922973;29;20051;-82
2023/07/04 10:12:41;;;;;;;0.20;0.20;;;17.90;99.90;;;;;;4910312;29;20146;-83
2023/07/04 10:15:08;;;;;;;0.10;0.10;;;17.70;99.90;;;;;;4922382;29;20054;-84
2023/07/04 10:17:35;;;;;;;0.40;0.25;;;17.60;99.90;;;;;;4941447;28;20047;-84
2023/07/04 10:20:09;;;;;;;0.75;0.22;;;17.50;99.90;;;;;;4957355;28;20049;-88
2023/07/04 10:22:41;;;;;;;0.20;0.20;;;17.20;99.90;;;;;;4942056;28;20057;-85
2023/07/04 10:25:12;;;;;;;0.75;0.35;;;17.00;99.90;;;;;;4941760;28;20554;-84
2023/07/04 10:27:41;;;;;;;0.15;0.15;;;16.80;99.90;;;;;;4958060;28;20046;-86
2023/07/04 10:30:11;;;;;;;0.20;0.20;;;16.70;99.90;;;;;;4934165;29;20125;-84
2023/07/04 10:32:42;;;;;;;0.82;0.30;;;16.70;99.90;;;;;;4920446;29;20056;-85
2023/07/04 10:35:13;;;;;;;0.10;0.10;;;16.70;99.90;;;;;;4954287;29;20110;-86
2023/07/04 10:37:42;;;;;;;0.10;0.10;;;16.60;99.90;;;;;;4936809;29;20047;-86
2023/07/04 10:40:14;;;;;;;0.20;0.10;;;16.50;99.90;;;;;;4936407;29;20054;-95
2023/07/04 10:42:55;;;;;;;0.10;0.10;;;16.50;32.20;;;;;;4954134;29;20050;-93
2023/07/04 10:45:23;;;;;;;0.10;0.10;;;16.40;60.40;;;;;;4929502;29;20044;-93
2023/07/04 10:47:53;;;;;;;0.25;0.20;;;16.50;85.80;;;;;;4921584;29;20050;-94
2023/07/04 10:50:36;;;;;;;0.65;0.20;;;16.70;71.40;;;;;;4940786;29;20051;-94
2023/07/04 10:53:02;;;;;;;0.75;0.28;;;17.00;58.70;;;;;;4935588;29;20070;-94
2023/07/04 10:55:37;;;;;;;0.10;0.10;;;17.80;1.00;;;;;;4937284;29;20092;-92
2023/07/04 10:58:36;;;;;;;0.10;0.10;;;17.20;12.30;;;;;;4924952;29;20062;-88
2023/07/04 11:01:20;;;;;;;0.20;0.20;;;17.50;1.00;;;;;;4922382;29;20062;-87
2023/07/04 11:04:01;;;;;;;0.10;0.10;;;17.70;1.00;;;;;;4939948;29;20103;-85
2023/07/04 11:06:37;;;;;;;0.75;0.10;;;18.00;1.00;;;;;;4920095;29;20075;-88
2023/07/04 11:09:26;;;;;;;;;;;;;;;;;;;;;
2023/07/04 11:12:02;;;;;;;0.10;0.10;;;18.30;99.90;;;;;;4936866;29;20059;-85
2023/07/04 11:15:00;;;;;;;1.65;0.45;;;18.50;1.00;;;;;;4936131;29;20073;-86
2023/07/04 11:17:35;;;;;;;0.30;0.20;;;18.10;1.00;;;;;;4943226;29;20051;-85
2023/07/04 11:20:22;;;;;;;0.00;0.00;;;18.40;99.90;;;;;;4936073;29;20070;-88
2023/07/04 11:22:51;;;;;;;0.45;0.20;;;19.30;1.00;;;;;;4920141;29;20066;-88
2023/07/04 11:25:43;;;;;;;0.15;0.15;;;18.40;1.00;;;;;;4935598;29;20051;-88
2023/07/04 11:28:36;;;;;;;0.10;0.10;;;18.70;99.90;;;;;;4932988;29;20152;-87
2023/07/04 11:31:07;;;;;;;0.22;0.22;;;18.90;1.00;;;;;;4935924;29;20086;-86
2023/07/04 11:33:55;;;;;;;0.10;0.10;;;20.40;1.00;;;;;;4933332;29;20074;-86
2023/07/04 11:36:25;;;;;;;;;;;19.50;1.00;;;;;;4936061;29;20050;-86
2023/07/04 11:38:58;;;;;;;0.10;0.10;;;19.20;1.00;;;;;;4920161;29;19945;-88
2023/07/04 11:41:34;;;;;;;0.10;0.10;;;20.00;99.90;;;;;;4934860;29;20055;-85
2023/07/04 11:44:16;;;;;;;0.10;0.10;;;18.90;99.90;;;;;;4934402;29;20047;-85
2023/07/04 11:47:06;;;;;;;0.40;0.22;;;18.80;62.10;;;;;;4935957;29;20055;-88
2023/07/04 11:49:33;;;;;;;1.55;0.55;;;18.70;88.50;;;;;;4919313;29;20228;-85
2023/07/04 11:52:20;;;;;;;0.10;0.10;;;18.60;99.90;;;;;;4924343;29;20400;-89
2023/07/04 11:54:58;;;;;;;0.10;0.10;;;18.60;29.80;;;;;;4922132;29;20051;-88
2023/07/04 11:57:59;;;;;;;0.35;0.25;;;18.50;99.90;;;;;;4920920;29;20047;-88
2023/07/04 12:00:38;;;;;;;0.20;0.10;;;18.40;99.90;;;;;;4939260;29;20043;-87
2023/07/04 12:03:21;;;;;;;0.00;0.00;;;18.70;99.90;;;;;;4939423;29;20443;-86
2023/07/04 12:05:59;;;;;;;0.10;0.10;;;18.80;1.00;;;;;;4939908;29;20061;-90
2023/07/04 12:08:31;;;;;;;0.10;0.10;;;19.00;99.90;;;;;;4937350;29;20190;-85
2023/07/04 12:11:04;;;;;;;0.20;0.20;;;19.20;99.90;;;;;;4937823;29;20428;-86
2023/07/04 12:13:34;;;;;;;0.17;0.17;;;19.40;99.90;;;;;;4923027;29;20694;-86
2023/07/04 12:16:02;;;;;;;0.82;0.63;;;19.40;6.20;;;;;;4936409;29;20054;-87
2023/07/04 12:18:32;;;;;;;0.75;0.40;;;19.40;99.90;;;;;;4939084;29;20051;-88
2023/07/04 12:20:58;;;;;;;1.98;0.30;;;19.40;99.90;;;;;;4938537;28;20078;-85
2023/07/04 12:23:24;;;;;;;;;;;19.30;99.90;;;;;;4939152;29;20039;-86
2023/07/04 12:25:52;;;;;;;0.28;0.10;;;19.30;99.90;;;;;;4939497;29;19929;-85
2023/07/04 12:28:24;;;;;;;0.13;0.13;;;19.40;99.90;;;;;;4923123;29;20071;-86
2023/07/04 12:30:53;;;;;;;0.08;0.08;;;19.50;99.90;;;;;;4955185;29;20046;-83
2023/07/04 12:33:30;;;;;;;0.17;0.17;;;19.40;99.90;;;;;;4933968;29;20131;-82
2023/07/04 12:36:05;;;;;;;0.40;0.40;;;19.40;99.90;;;;;;4930581;29;20058;-84
2023/07/04 12:38:33;;;;;;;0.10;0.10;;;19.50;99.90;;;;;;4939127;29;20043;-85
2023/07/04 12:41:00;;;;;;;2.55;0.40;;;19.50;99.90;;;;;;4938843;29;20512;-84
2023/07/04 12:43:32;;;;;;;0.15;0.10;;;19.40;1.00;;;;;;4934173;28;20102;-84
2023/07/04 12:46:15;;;;;;;0.17;0.10;;;19.10;99.90;;;;;;4931997;29;20047;-84
2023/07/04 12:48:42;;;;;;;0.38;0.20;;;18.90;1.00;;;;;;4941977;29;20086;-89
2023/07/04 12:51:15;;;;;;;0.52;0.52;;;18.70;99.90;;;;;;4907399;29;20074;-87
2023/07/04 12:53:42;;;;;;;0.17;0.17;;;18.70;26.00;;;;;;4920553;28;20047;-84
2023/07/04 12:56:13;;;;;;;0.10;0.10;;;18.80;99.90;;;;;;4922946;29;20570;-86
2023/07/04 12:58:40;;;;;;;0.13;0.13;;;19.00;99.90;;;;;;4922315;29;20043;-84
2023/07/04 13:01:09;;;;;;;0.05;0.05;;;19.00;99.90;;;;;;4924376;29;20126;-85
2023/07/04 13:03:35;;;;;;;0.13;0.13;;;18.90;1.00;;;;;;4912004;28;20122;-85